createdAt,value
2016-10-29T01:21:19.920Z,0
2016-10-29T01:22:30.141Z,0
2016-10-29T01:23:42.511Z,0
2016-10-29T01:24:55.046Z,0
2016-10-29T01:26:07.070Z,0
2016-10-29T01:27:20.313Z,0
2016-10-29T01:28:32.052Z,0
2016-10-29T01:29:44.213Z,0
2016-10-29T01:30:55.243Z,0
2016-10-29T01:32:06.450Z,0
2016-10-29T01:33:18.780Z,0
2016-10-29T01:34:30.025Z,0
2016-10-29T01:35:41.598Z,0
2016-10-29T01:36:54.717Z,0
2016-10-29T01:38:05.828Z,0
2016-10-29T01:39:17.105Z,0
2016-10-29T01:40:29.410Z,0
2016-10-29T01:41:41.613Z,0
2016-10-29T01:42:53.096Z,0
2016-10-29T01:44:05.834Z,0
2016-10-29T01:45:17.580Z,0
2016-10-29T01:46:29.935Z,0
2016-10-29T01:47:41.569Z,0
2016-10-29T01:48:52.735Z,0
2016-10-29T01:50:03.610Z,0
2016-10-29T01:51:15.770Z,0
2016-10-29T01:52:28.227Z,0
2016-10-29T01:53:38.556Z,0
2016-10-29T01:54:49.652Z,0
2016-10-29T01:56:01.969Z,0
2016-10-29T01:57:13.440Z,0
2016-10-29T01:58:25.141Z,0
2016-10-29T01:59:37.252Z,0
2016-10-29T02:00:48.403Z,0
2016-10-29T02:01:59.631Z,0
2016-10-29T02:03:11.326Z,0
2016-10-29T02:04:23.086Z,0
2016-10-29T02:05:35.210Z,0
2016-10-29T02:06:47.391Z,0
2016-10-29T02:07:59.305Z,0
2016-10-29T02:09:10.621Z,0
2016-10-29T02:10:22.532Z,0
2016-10-29T02:11:33.352Z,0
2016-10-29T02:12:45.523Z,0
2016-10-29T02:13:56.887Z,0
2016-10-29T02:15:09.144Z,0
2016-10-29T02:16:22.156Z,0
2016-10-29T02:17:33.909Z,0
2016-10-29T02:18:46.577Z,0
2016-10-29T02:19:58.204Z,0
2016-10-29T02:21:09.634Z,0
2016-10-29T02:22:21.610Z,0
2016-10-29T02:23:33.478Z,0
2016-10-29T02:24:45.317Z,0
2016-10-29T02:25:58.022Z,0
2016-10-29T02:27:10.239Z,0
2016-10-29T02:28:22.932Z,0
2016-10-29T02:29:35.520Z,0
2016-10-29T02:30:47.980Z,0
2016-10-29T02:32:00.649Z,0
2016-10-29T02:33:12.243Z,0
2016-10-29T02:34:24.464Z,0
2016-10-29T02:35:35.953Z,0
2016-10-29T02:36:46.532Z,0
2016-10-29T02:37:58.180Z,0
2016-10-29T02:39:10.043Z,0
2016-10-29T02:40:22.362Z,0
2016-10-29T02:41:34.453Z,0
2016-10-29T02:42:46.473Z,0
2016-10-29T02:43:57.825Z,0
2016-10-29T02:45:09.867Z,0
2016-10-29T02:46:22.884Z,0
2016-10-29T02:47:34.055Z,0
2016-10-29T02:48:46.302Z,0
2016-10-29T02:49:57.517Z,0
2016-10-29T02:51:08.605Z,0
2016-10-29T02:52:20.825Z,0
2016-10-29T02:53:33.864Z,0
2016-10-29T02:54:44.917Z,0
2016-10-29T02:55:56.678Z,0
2016-10-29T02:57:08.514Z,0
2016-10-29T02:58:19.598Z,0
2016-10-29T02:59:32.150Z,0
2016-10-29T03:00:43.240Z,0
2016-10-29T03:01:54.953Z,0
2016-10-29T03:03:07.135Z,0
2016-10-29T03:04:18.670Z,0
2016-10-29T03:05:31.078Z,0
2016-10-29T03:06:43.195Z,0
2016-10-29T03:07:55.411Z,0
2016-10-29T03:09:07.108Z,0
2016-10-29T03:10:19.117Z,0
2016-10-29T03:11:30.720Z,0
2016-10-29T03:12:42.292Z,0
2016-10-29T03:13:54.314Z,0
2016-10-29T03:15:05.314Z,0
2016-10-29T03:16:15.729Z,0
2016-10-29T03:17:28.201Z,0
2016-10-29T03:18:39.538Z,0
2016-10-29T03:19:51.243Z,0
2016-10-29T03:21:02.723Z,0
2016-10-29T03:22:15.284Z,0
2016-10-29T03:23:26.532Z,0
2016-10-29T03:24:39.377Z,0
2016-10-29T03:25:52.619Z,0
2016-10-29T03:27:03.619Z,0
2016-10-29T03:28:15.571Z,0
2016-10-29T03:29:28.180Z,0
2016-10-29T03:30:40.744Z,0
2016-10-29T03:31:52.774Z,0
2016-10-29T03:33:04.947Z,0
2016-10-29T03:34:15.172Z,0
2016-10-29T03:35:27.592Z,0
2016-10-29T03:36:38.899Z,0
2016-10-29T03:37:50.968Z,0
2016-10-29T03:39:03.519Z,0
2016-10-29T03:40:15.583Z,0
2016-10-29T03:41:27.738Z,0
2016-10-29T03:42:39.347Z,0
2016-10-29T03:43:50.123Z,0
2016-10-29T03:45:02.105Z,0
2016-10-29T03:46:14.664Z,0
2016-10-29T03:47:26.962Z,0
2016-10-29T03:48:39.027Z,0
2016-10-29T03:49:52.278Z,0
2016-10-29T03:51:03.696Z,0
2016-10-29T03:52:15.105Z,0
2016-10-29T03:53:27.144Z,0
2016-10-29T03:54:38.770Z,0
2016-10-29T03:55:50.487Z,0
2016-10-29T03:57:03.601Z,0
2016-10-29T03:58:15.055Z,0
2016-10-29T03:59:27.705Z,0
2016-10-29T04:00:40.009Z,0
2016-10-29T04:01:52.640Z,0
2016-10-29T04:03:05.416Z,0
2016-10-29T04:04:18.043Z,0
2016-10-29T04:05:28.729Z,0
2016-10-29T04:06:40.153Z,0
2016-10-29T04:07:51.741Z,0
2016-10-29T04:09:04.061Z,0
2016-10-29T04:10:15.538Z,0
2016-10-29T04:11:27.744Z,0
2016-10-29T04:12:40.553Z,0
2016-10-29T04:13:52.302Z,0
2016-10-29T04:15:03.585Z,0
2016-10-29T04:16:15.243Z,0
2016-10-29T04:17:28.222Z,0
2016-10-29T04:18:40.322Z,0
2016-10-29T04:19:53.129Z,0
2016-10-29T04:21:05.565Z,0
2016-10-29T04:22:16.733Z,0
2016-10-29T04:23:28.988Z,0
2016-10-29T04:24:41.801Z,0
2016-10-29T04:25:52.791Z,0
2016-10-29T04:27:04.419Z,0
2016-10-29T04:28:17.036Z,0
2016-10-29T04:29:28.738Z,0
2016-10-29T04:30:41.146Z,0
2016-10-29T04:31:53.944Z,0
2016-10-29T04:33:05.242Z,0
2016-10-29T04:34:17.024Z,0
2016-10-29T04:35:28.804Z,0
2016-10-29T04:36:41.889Z,0
2016-10-29T04:37:53.946Z,0
2016-10-29T04:39:06.062Z,0
2016-10-29T04:40:17.355Z,0
2016-10-29T04:41:28.143Z,0
2016-10-29T04:42:40.283Z,0
2016-10-29T04:43:51.318Z,0
2016-10-29T04:45:03.466Z,0
2016-10-29T04:46:14.142Z,0
2016-10-29T04:47:26.041Z,0
2016-10-29T04:48:37.059Z,0
2016-10-29T04:49:48.491Z,0
2016-10-29T04:51:01.306Z,0
2016-10-29T04:52:13.856Z,0
2016-10-29T04:53:25.545Z,0
2016-10-29T04:54:37.778Z,0
2016-10-29T04:55:49.287Z,0
2016-10-29T04:57:01.607Z,0
2016-10-29T04:58:13.213Z,0
2016-10-29T04:59:25.980Z,0
2016-10-29T05:00:37.440Z,0
2016-10-29T05:01:49.687Z,0
2016-10-29T05:03:01.789Z,0
2016-10-29T05:04:15.070Z,0
2016-10-29T05:05:27.629Z,0
2016-10-29T05:06:39.575Z,0
2016-10-29T05:07:52.386Z,0
2016-10-29T05:09:03.586Z,0
2016-10-29T05:10:16.276Z,0
2016-10-29T05:11:27.383Z,0
2016-10-29T05:12:38.841Z,0
2016-10-29T05:13:50.508Z,0
2016-10-29T05:15:03.285Z,0
2016-10-29T05:16:15.864Z,0
2016-10-29T05:17:28.138Z,0
2016-10-29T05:18:40.881Z,0
2016-10-29T05:19:52.957Z,0
2016-10-29T05:21:05.177Z,0
2016-10-29T05:22:16.867Z,0
2016-10-29T05:23:27.739Z,0
2016-10-29T05:24:41.084Z,0
2016-10-29T05:25:53.381Z,0
2016-10-29T05:27:05.244Z,0
2016-10-29T05:28:17.960Z,0
2016-10-29T05:29:30.428Z,0
2016-10-29T05:30:42.524Z,0
2016-10-29T05:31:54.745Z,0
2016-10-29T05:33:07.369Z,0
2016-10-29T05:34:19.151Z,0
2016-10-29T05:35:30.607Z,0
2016-10-29T05:36:43.153Z,0
2016-10-29T05:37:55.451Z,0
2016-10-29T05:39:07.808Z,0
2016-10-29T05:40:20.650Z,0
2016-10-29T05:41:33.082Z,0
2016-10-29T05:42:45.444Z,0
2016-10-29T05:43:57.623Z,0
2016-10-29T05:45:09.381Z,0
2016-10-29T05:46:21.008Z,0
2016-10-29T05:47:33.736Z,0
2016-10-29T05:48:46.029Z,0
2016-10-29T05:49:58.838Z,0
2016-10-29T05:51:10.912Z,0
2016-10-29T05:52:23.647Z,0
2016-10-29T05:53:35.997Z,0
2016-10-29T05:54:48.218Z,0
2016-10-29T05:56:01.056Z,0
2016-10-29T05:57:13.829Z,0
2016-10-29T05:58:25.733Z,0
2016-10-29T05:59:38.339Z,0
2016-10-29T06:00:50.366Z,0
2016-10-29T06:02:02.047Z,0
2016-10-29T06:03:13.672Z,0
2016-10-29T06:04:26.707Z,0
2016-10-29T06:05:38.984Z,0
2016-10-29T06:06:51.964Z,0
2016-10-29T06:08:04.781Z,0
2016-10-29T06:09:15.665Z,0
2016-10-29T06:10:27.498Z,0
2016-10-29T06:11:40.555Z,0
2016-10-29T06:12:52.328Z,0
2016-10-29T06:14:04.076Z,0
2016-10-29T06:15:16.572Z,0
2016-10-29T06:16:27.423Z,0
2016-10-29T06:17:39.311Z,0
2016-10-29T06:18:51.221Z,0
2016-10-29T06:20:01.451Z,0
2016-10-29T06:21:13.585Z,0
2016-10-29T06:22:25.884Z,0
2016-10-29T06:23:38.224Z,0
2016-10-29T06:24:49.731Z,0
2016-10-29T06:26:01.552Z,5
2016-10-29T06:27:13.570Z,5
2016-10-29T06:28:25.767Z,5
2016-10-29T06:29:37.922Z,5
2016-10-29T06:30:50.206Z,5
2016-10-29T06:32:01.974Z,5
2016-10-29T06:33:14.356Z,10
2016-10-29T06:34:25.929Z,10
2016-10-29T06:35:38.037Z,10
2016-10-29T06:36:50.837Z,10
2016-10-29T06:38:02.762Z,10
2016-10-29T06:39:14.598Z,15
2016-10-29T06:40:26.744Z,15
2016-10-29T06:41:39.389Z,15
2016-10-29T06:42:51.634Z,15
2016-10-29T06:44:03.246Z,20
2016-10-29T06:45:15.350Z,20
2016-10-29T06:46:27.126Z,20
2016-10-29T06:47:40.320Z,20
2016-10-29T06:48:53.025Z,25
2016-10-29T06:50:05.601Z,25
2016-10-29T06:51:17.684Z,25
2016-10-29T06:52:30.929Z,25
2016-10-29T06:53:43.117Z,30
2016-10-29T06:54:54.523Z,30
2016-10-29T06:56:05.989Z,30
2016-10-29T06:57:18.022Z,35
2016-10-29T06:58:29.783Z,35
2016-10-29T06:59:42.413Z,35
2016-10-29T07:00:54.652Z,40
2016-10-29T07:02:06.396Z,40
2016-10-29T07:03:18.583Z,40
2016-10-29T07:04:30.468Z,50
2016-10-29T07:05:42.150Z,60
2016-10-29T07:06:53.708Z,60
2016-10-29T07:08:05.341Z,60
2016-10-29T07:09:17.414Z,65
2016-10-29T07:10:29.016Z,60
2016-10-29T07:11:40.401Z,55
2016-10-29T07:12:52.389Z,55
2016-10-29T07:14:04.942Z,55
2016-10-29T07:15:17.402Z,60
2016-10-29T07:16:29.965Z,60
2016-10-29T07:17:43.195Z,60
2016-10-29T07:18:56.228Z,60
2016-10-29T07:20:08.395Z,60
2016-10-29T07:21:20.721Z,60
2016-10-29T07:22:34.005Z,65
2016-10-29T07:23:45.243Z,65
2016-10-29T07:24:57.993Z,65
2016-10-29T07:26:10.620Z,65
2016-10-29T07:27:22.939Z,65
2016-10-29T07:28:35.763Z,70
2016-10-29T07:29:47.685Z,70
2016-10-29T07:31:00.201Z,70
2016-10-29T07:32:12.847Z,75
2016-10-29T07:33:24.990Z,75
2016-10-29T07:34:37.267Z,75
2016-10-29T07:35:49.160Z,75
2016-10-29T07:37:04.784Z,75
2016-10-29T07:38:15.841Z,75
2016-10-29T07:39:27.682Z,80
2016-10-29T07:40:39.736Z,80
2016-10-29T07:41:51.285Z,80
2016-10-29T07:43:03.433Z,85
2016-10-29T07:44:14.515Z,85
2016-10-29T07:45:26.157Z,85
2016-10-29T07:46:38.005Z,90
2016-10-29T07:47:50.742Z,90
2016-10-29T07:49:02.781Z,90
2016-10-29T07:50:15.209Z,90
2016-10-29T07:51:27.611Z,95
2016-10-29T07:52:38.817Z,95
2016-10-29T07:53:50.602Z,95
2016-10-29T07:55:01.866Z,100
2016-10-29T07:56:13.826Z,100
2016-10-29T07:57:25.166Z,100
2016-10-29T07:58:37.918Z,105
2016-10-29T07:59:49.694Z,110
2016-10-29T08:01:00.853Z,105
2016-10-29T08:02:12.772Z,110
2016-10-29T08:03:24.163Z,110
2016-10-29T08:04:36.229Z,110
2016-10-29T08:05:47.512Z,110
2016-10-29T08:06:59.542Z,110
2016-10-29T08:08:12.208Z,110
2016-10-29T08:09:24.918Z,115
2016-10-29T08:10:37.011Z,115
2016-10-29T08:11:49.996Z,120
2016-10-29T08:13:02.393Z,120
2016-10-29T08:14:14.370Z,120
2016-10-29T08:15:26.042Z,125
2016-10-29T08:16:39.091Z,125
2016-10-29T08:17:50.641Z,125
2016-10-29T08:19:03.348Z,130
2016-10-29T08:20:14.747Z,130
2016-10-29T08:21:26.963Z,130
2016-10-29T08:22:38.602Z,135
2016-10-29T08:23:51.285Z,135
2016-10-29T08:25:04.370Z,140
2016-10-29T08:26:16.736Z,140
2016-10-29T08:27:27.671Z,140
2016-10-29T08:28:40.062Z,145
2016-10-29T08:29:52.303Z,140
2016-10-29T08:31:03.614Z,145
2016-10-29T08:32:14.494Z,145
2016-10-29T08:33:27.172Z,145
2016-10-29T08:34:39.345Z,145
2016-10-29T08:35:51.891Z,150
2016-10-29T08:37:04.554Z,150
2016-10-29T08:38:16.044Z,155
2016-10-29T08:39:27.190Z,155
2016-10-29T08:40:39.475Z,160
2016-10-29T08:41:50.945Z,155
2016-10-29T08:43:03.051Z,160
2016-10-29T08:44:15.288Z,160
2016-10-29T08:45:26.964Z,160
2016-10-29T08:46:37.691Z,165
2016-10-29T08:47:48.988Z,165
2016-10-29T08:49:01.011Z,165
2016-10-29T08:50:13.199Z,170
2016-10-29T08:51:25.978Z,170
2016-10-29T08:52:37.369Z,165
2016-10-29T08:53:50.190Z,170
2016-10-29T08:55:01.924Z,170
2016-10-29T08:56:13.819Z,170
2016-10-29T08:57:26.521Z,170
2016-10-29T08:58:39.235Z,170
2016-10-29T08:59:50.879Z,170
2016-10-29T09:01:02.554Z,170
2016-10-29T09:02:13.488Z,175
2016-10-29T09:03:25.638Z,180
2016-10-29T09:04:37.530Z,180
2016-10-29T09:05:49.265Z,180
2016-10-29T09:07:02.046Z,180
2016-10-29T09:08:13.938Z,180
2016-10-29T09:09:26.647Z,185
2016-10-29T09:10:38.362Z,175
2016-10-29T09:11:50.807Z,180
2016-10-29T09:13:02.625Z,185
2016-10-29T09:14:15.777Z,180
2016-10-29T09:15:26.905Z,180
2016-10-29T09:16:39.385Z,185
2016-10-29T09:17:52.590Z,185
2016-10-29T09:19:05.625Z,190
2016-10-29T09:20:16.258Z,180
2016-10-29T09:21:29.555Z,180
2016-10-29T09:22:40.830Z,180
2016-10-29T09:23:51.713Z,180
2016-10-29T09:25:02.740Z,185
2016-10-29T09:26:14.077Z,195
2016-10-29T09:27:26.558Z,185
2016-10-29T09:28:37.931Z,185
2016-10-29T09:29:49.343Z,190
2016-10-29T09:31:01.039Z,220
2016-10-29T09:32:13.906Z,215
2016-10-29T09:33:25.540Z,190
2016-10-29T09:34:37.151Z,185
2016-10-29T09:35:50.476Z,185
2016-10-29T09:37:01.309Z,190
2016-10-29T09:38:12.024Z,190
2016-10-29T09:39:22.764Z,190
2016-10-29T09:40:35.126Z,195
2016-10-29T09:41:46.340Z,195
2016-10-29T09:42:57.390Z,200
2016-10-29T09:44:08.946Z,205
2016-10-29T09:45:21.030Z,115
2016-10-29T09:46:31.870Z,145
2016-10-29T09:47:43.945Z,160
2016-10-29T09:48:55.504Z,185
2016-10-29T09:50:07.085Z,190
2016-10-29T09:51:19.032Z,195
2016-10-29T09:52:31.441Z,190
2016-10-29T09:53:43.972Z,190
2016-10-29T09:54:56.641Z,180
2016-10-29T09:56:08.139Z,185
2016-10-29T09:57:19.238Z,185
2016-10-29T09:58:31.432Z,185
2016-10-29T09:59:43.506Z,185
2016-10-29T10:00:55.291Z,190
2016-10-29T10:02:07.688Z,190
2016-10-29T10:03:20.796Z,200
2016-10-29T10:04:32.984Z,220
2016-10-29T10:05:45.757Z,195
2016-10-29T10:06:57.438Z,190
2016-10-29T10:08:10.136Z,190
2016-10-29T10:09:21.951Z,190
2016-10-29T10:10:32.982Z,190
2016-10-29T10:11:44.115Z,185
2016-10-29T10:12:55.960Z,175
2016-10-29T10:14:06.712Z,185
2016-10-29T10:15:18.942Z,185
2016-10-29T10:16:31.046Z,185
2016-10-29T10:17:43.351Z,185
2016-10-29T10:18:54.560Z,190
2016-10-29T10:20:06.118Z,185
2016-10-29T10:21:18.282Z,185
2016-10-29T10:22:29.954Z,185
2016-10-29T10:23:41.769Z,185
2016-10-29T10:24:53.600Z,185
2016-10-29T10:26:04.784Z,185
2016-10-29T10:27:17.363Z,180
2016-10-29T10:28:28.955Z,180
2016-10-29T10:29:40.712Z,170
2016-10-29T10:30:52.238Z,180
2016-10-29T10:32:04.671Z,180
2016-10-29T10:33:16.133Z,180
2016-10-29T10:34:26.500Z,180
2016-10-29T10:35:37.909Z,180
2016-10-29T10:36:49.836Z,180
2016-10-29T10:38:01.887Z,180
2016-10-29T10:39:15.088Z,180
2016-10-29T10:40:27.094Z,180
2016-10-29T10:41:39.154Z,180
2016-10-29T10:42:51.903Z,180
2016-10-29T10:44:03.930Z,175
2016-10-29T10:45:16.653Z,175
2016-10-29T10:46:28.094Z,175
2016-10-29T10:47:39.949Z,175
2016-10-29T10:48:51.945Z,175
2016-10-29T10:50:02.883Z,175
2016-10-29T10:51:14.350Z,175
2016-10-29T10:52:26.196Z,175
2016-10-29T10:53:37.384Z,175
2016-10-29T10:54:49.241Z,175
2016-10-29T10:56:00.724Z,180
2016-10-29T10:57:11.315Z,175
2016-10-29T10:58:22.689Z,175
2016-10-29T10:59:34.579Z,180
2016-10-29T11:00:46.683Z,180
2016-10-29T11:01:58.730Z,170
2016-10-29T11:03:10.032Z,170
2016-10-29T11:04:23.277Z,170
2016-10-29T11:05:33.755Z,175
2016-10-29T11:06:45.745Z,170
2016-10-29T11:07:56.158Z,170
2016-10-29T11:09:07.173Z,170
2016-10-29T11:10:18.898Z,170
2016-10-29T11:11:30.324Z,165
2016-10-29T11:12:42.069Z,165
2016-10-29T11:13:54.615Z,160
2016-10-29T11:15:06.672Z,165
2016-10-29T11:16:18.942Z,170
2016-10-29T11:17:30.077Z,170
2016-10-29T11:18:42.254Z,165
2016-10-29T11:19:54.731Z,165
2016-10-29T11:21:07.905Z,165
2016-10-29T11:22:19.069Z,165
2016-10-29T11:23:30.340Z,165
2016-10-29T11:24:42.222Z,160
2016-10-29T11:25:54.558Z,160
2016-10-29T11:27:05.722Z,160
2016-10-29T11:28:16.466Z,160
2016-10-29T11:29:28.319Z,165
2016-10-29T11:30:40.931Z,165
2016-10-29T11:31:52.746Z,165
2016-10-29T11:33:05.395Z,165
2016-10-29T11:34:17.213Z,160
2016-10-29T11:35:28.328Z,160
2016-10-29T11:36:40.224Z,160
2016-10-29T11:37:52.938Z,160
2016-10-29T11:39:05.096Z,160
2016-10-29T11:40:15.634Z,160
2016-10-29T11:41:28.455Z,160
2016-10-29T11:42:41.111Z,155
2016-10-29T11:43:53.251Z,155
2016-10-29T11:45:05.383Z,155
2016-10-29T11:46:18.147Z,155
2016-10-29T11:47:30.270Z,155
2016-10-29T11:48:42.252Z,155
2016-10-29T11:49:53.604Z,155
2016-10-29T11:51:05.404Z,155
2016-10-29T11:52:16.795Z,155
2016-10-29T11:53:28.028Z,150
2016-10-29T11:54:41.183Z,150
2016-10-29T11:55:53.398Z,150
2016-10-29T11:57:05.980Z,155
2016-10-29T11:58:17.255Z,150
2016-10-29T11:59:29.162Z,150
2016-10-29T12:00:41.219Z,150
2016-10-29T12:01:51.547Z,150
2016-10-29T12:03:03.115Z,145
2016-10-29T12:04:14.580Z,145
2016-10-29T12:05:26.302Z,145
2016-10-29T12:06:37.958Z,145
2016-10-29T12:07:48.774Z,145
2016-10-29T12:09:00.279Z,150
2016-10-29T12:10:12.586Z,145
2016-10-29T12:11:24.744Z,140
2016-10-29T12:12:35.980Z,140
2016-10-29T12:13:47.043Z,140
2016-10-29T12:14:59.708Z,140
2016-10-29T12:16:11.720Z,140
2016-10-29T12:17:23.811Z,140
2016-10-29T12:18:36.407Z,140
2016-10-29T12:19:48.635Z,140
2016-10-29T12:21:00.726Z,135
2016-10-29T12:22:13.184Z,135
2016-10-29T12:23:25.281Z,135
2016-10-29T12:24:37.329Z,135
2016-10-29T12:25:49.711Z,135
2016-10-29T12:27:02.363Z,130
2016-10-29T12:28:14.960Z,130
2016-10-29T12:29:27.729Z,130
2016-10-29T12:30:40.339Z,130
2016-10-29T12:31:52.049Z,130
2016-10-29T12:33:04.208Z,130
2016-10-29T12:34:15.690Z,130
2016-10-29T12:35:27.357Z,130
2016-10-29T12:36:39.890Z,130
2016-10-29T12:37:53.139Z,130
2016-10-29T12:39:04.734Z,130
2016-10-29T12:40:16.318Z,130
2016-10-29T12:41:28.762Z,130
2016-10-29T12:42:39.312Z,130
2016-10-29T12:43:50.862Z,130
2016-10-29T12:45:02.960Z,125
2016-10-29T12:46:14.747Z,125
2016-10-29T12:47:27.437Z,125
2016-10-29T12:48:40.369Z,125
2016-10-29T12:49:52.644Z,125
2016-10-29T12:51:04.002Z,125
2016-10-29T12:52:15.706Z,125
2016-10-29T12:53:26.781Z,125
2016-10-29T12:54:38.751Z,120
2016-10-29T12:55:49.632Z,120
2016-10-29T12:57:01.665Z,120
2016-10-29T12:58:12.897Z,120
2016-10-29T12:59:25.494Z,120
2016-10-29T13:00:36.915Z,120
2016-10-29T13:01:48.053Z,120
2016-10-29T13:03:00.005Z,115
2016-10-29T13:04:11.647Z,115
2016-10-29T13:05:23.435Z,115
2016-10-29T13:06:33.748Z,115
2016-10-29T13:07:45.543Z,115
2016-10-29T13:08:58.342Z,110
2016-10-29T13:10:10.842Z,110
2016-10-29T13:11:22.366Z,110
2016-10-29T13:12:34.447Z,110
2016-10-29T13:13:45.859Z,110
2016-10-29T13:14:56.859Z,110
2016-10-29T13:16:08.694Z,105
2016-10-29T13:17:20.251Z,105
2016-10-29T13:18:31.456Z,105
2016-10-29T13:19:43.743Z,105
2016-10-29T13:20:56.140Z,105
2016-10-29T13:22:07.835Z,105
2016-10-29T13:23:19.384Z,100
2016-10-29T13:24:32.516Z,100
2016-10-29T13:25:45.088Z,100
2016-10-29T13:26:56.730Z,95
2016-10-29T13:28:09.984Z,95
2016-10-29T13:29:22.032Z,95
2016-10-29T13:30:34.045Z,95
2016-10-29T13:31:45.644Z,95
2016-10-29T13:32:57.662Z,95
2016-10-29T13:34:08.888Z,95
2016-10-29T13:35:19.047Z,90
2016-10-29T13:36:31.233Z,90
2016-10-29T13:37:43.203Z,90
2016-10-29T13:38:53.892Z,90
2016-10-29T13:40:06.480Z,90
2016-10-29T13:41:19.029Z,90
2016-10-29T13:42:30.837Z,90
2016-10-29T13:43:43.091Z,90
2016-10-29T13:44:55.701Z,90
2016-10-29T13:46:08.319Z,90
2016-10-29T13:47:20.544Z,85
2016-10-29T13:48:33.367Z,85
2016-10-29T13:49:44.794Z,85
2016-10-29T13:50:56.063Z,85
2016-10-29T13:52:08.275Z,85
2016-10-29T13:53:20.531Z,85
2016-10-29T13:54:33.641Z,80
2016-10-29T13:55:44.418Z,80
2016-10-29T13:56:55.504Z,80
2016-10-29T13:58:05.618Z,80
2016-10-29T13:59:17.122Z,80
2016-10-29T14:00:28.886Z,80
2016-10-29T14:01:40.686Z,80
2016-10-29T14:02:51.665Z,75
2016-10-29T14:04:04.127Z,75
2016-10-29T14:05:16.900Z,80
2016-10-29T14:06:29.218Z,75
2016-10-29T14:07:41.855Z,75
2016-10-29T14:08:52.507Z,75
2016-10-29T14:10:03.086Z,75
2016-10-29T14:11:14.193Z,75
2016-10-29T14:12:26.239Z,75
2016-10-29T14:13:38.333Z,70
2016-10-29T14:14:50.421Z,70
2016-10-29T14:16:02.576Z,70
2016-10-29T14:17:14.438Z,70
2016-10-29T14:18:25.704Z,70
2016-10-29T14:19:38.417Z,70
2016-10-29T14:20:49.164Z,70
2016-10-29T14:22:01.572Z,70
2016-10-29T14:23:13.245Z,70
2016-10-29T14:24:25.239Z,70
2016-10-29T14:25:36.807Z,70
2016-10-29T14:26:47.853Z,65
2016-10-29T14:28:00.360Z,65
2016-10-29T14:29:12.482Z,65
2016-10-29T14:30:25.197Z,65
2016-10-29T14:31:36.660Z,65
2016-10-29T14:32:47.862Z,65
2016-10-29T14:34:01.062Z,65
2016-10-29T14:35:12.480Z,65
2016-10-29T14:36:23.934Z,65
2016-10-29T14:37:35.292Z,65
2016-10-29T14:38:46.654Z,65
2016-10-29T14:39:59.382Z,65
2016-10-29T14:41:10.292Z,60
2016-10-29T14:42:22.952Z,60
2016-10-29T14:43:35.656Z,60
2016-10-29T14:44:48.289Z,60
2016-10-29T14:46:00.786Z,60
2016-10-29T14:47:12.945Z,60
2016-10-29T14:48:25.232Z,60
2016-10-29T14:49:38.003Z,60
2016-10-29T14:50:49.280Z,60
2016-10-29T14:52:00.722Z,60
2016-10-29T14:53:13.829Z,60
2016-10-29T14:54:24.785Z,60
2016-10-29T14:55:35.657Z,60
2016-10-29T14:56:46.939Z,55
2016-10-29T14:57:59.370Z,55
2016-10-29T14:59:11.964Z,55
2016-10-29T15:00:23.710Z,55
2016-10-29T15:01:35.331Z,55
2016-10-29T15:02:47.644Z,55
2016-10-29T15:04:00.227Z,55
2016-10-29T15:05:11.585Z,55
2016-10-29T15:06:22.654Z,55
2016-10-29T15:07:35.331Z,55
2016-10-29T15:08:47.292Z,55
2016-10-29T15:09:59.913Z,55
2016-10-29T15:11:13.110Z,55
2016-10-29T15:12:24.331Z,55
2016-10-29T15:13:35.740Z,50
2016-10-29T15:14:47.457Z,50
2016-10-29T15:15:59.436Z,50
2016-10-29T15:17:10.372Z,50
2016-10-29T15:18:23.060Z,50
2016-10-29T15:19:35.121Z,50
2016-10-29T15:20:47.226Z,50
2016-10-29T15:21:59.869Z,50
2016-10-29T15:23:11.280Z,50
2016-10-29T15:24:23.932Z,50
2016-10-29T15:25:35.369Z,50
2016-10-29T15:26:48.144Z,50
2016-10-29T15:27:59.890Z,50
2016-10-29T15:29:12.490Z,50
2016-10-29T15:30:22.840Z,50
2016-10-29T15:31:34.186Z,50
2016-10-29T15:32:46.001Z,45
2016-10-29T15:33:56.765Z,45
2016-10-29T15:35:08.251Z,45
2016-10-29T15:36:19.873Z,45
2016-10-29T15:37:30.565Z,45
2016-10-29T15:38:42.111Z,45
2016-10-29T15:39:52.618Z,45
2016-10-29T15:41:03.612Z,45
2016-10-29T15:42:15.042Z,45
2016-10-29T15:43:25.984Z,45
2016-10-29T15:44:38.520Z,45
2016-10-29T15:45:49.283Z,45
2016-10-29T15:47:00.993Z,45
2016-10-29T15:48:11.432Z,45
2016-10-29T15:49:23.393Z,45
2016-10-29T15:50:35.594Z,45
2016-10-29T15:51:47.567Z,40
2016-10-29T15:52:59.697Z,40
2016-10-29T15:54:11.438Z,40
2016-10-29T15:55:22.978Z,40
2016-10-29T15:56:34.417Z,40
2016-10-29T15:57:46.276Z,40
2016-10-29T15:58:58.453Z,40
2016-10-29T16:00:11.760Z,40
2016-10-29T16:01:22.967Z,35
2016-10-29T16:02:35.536Z,35
2016-10-29T16:03:46.934Z,35
2016-10-29T16:04:58.611Z,35
2016-10-29T16:06:10.605Z,35
2016-10-29T16:07:22.918Z,35
2016-10-29T16:08:33.497Z,35
2016-10-29T16:09:45.199Z,35
2016-10-29T16:10:56.053Z,35
2016-10-29T16:12:08.689Z,30
2016-10-29T16:13:21.432Z,30
2016-10-29T16:14:33.354Z,30
2016-10-29T16:15:43.779Z,30
2016-10-29T16:16:56.485Z,30
2016-10-29T16:18:06.996Z,30
2016-10-29T16:19:18.385Z,30
2016-10-29T16:20:29.666Z,30
2016-10-29T16:21:40.162Z,25
2016-10-29T16:22:52.152Z,25
2016-10-29T16:24:04.800Z,25
2016-10-29T16:25:17.054Z,25
2016-10-29T16:26:29.409Z,25
2016-10-29T16:27:40.612Z,25
2016-10-29T16:28:52.740Z,25
2016-10-29T16:30:04.660Z,20
2016-10-29T16:31:16.066Z,20
2016-10-29T16:32:27.026Z,20
2016-10-29T16:33:39.728Z,20
2016-10-29T16:34:50.442Z,20
2016-10-29T16:36:02.161Z,20
2016-10-29T16:37:13.994Z,15
2016-10-29T16:38:25.433Z,15
2016-10-29T16:39:36.107Z,15
2016-10-29T16:40:47.540Z,15
2016-10-29T16:41:58.277Z,15
2016-10-29T16:43:08.710Z,15
2016-10-29T16:44:19.117Z,10
2016-10-29T16:45:30.547Z,10
2016-10-29T16:46:43.171Z,10
2016-10-29T16:47:54.540Z,10
2016-10-29T16:49:05.449Z,10
2016-10-29T16:50:17.722Z,10
2016-10-29T16:51:30.267Z,5
2016-10-29T16:52:42.640Z,5
2016-10-29T16:53:54.331Z,5
2016-10-29T16:55:06.027Z,5
2016-10-29T16:56:17.955Z,5
2016-10-29T16:57:28.514Z,5
2016-10-29T16:58:39.881Z,5
2016-10-29T16:59:51.884Z,5
2016-10-29T17:01:03.583Z,0
2016-10-29T17:02:16.690Z,0
2016-10-29T17:03:29.120Z,0
2016-10-29T17:04:40.595Z,0
2016-10-29T17:05:51.344Z,0
2016-10-29T17:07:03.353Z,0
2016-10-29T17:08:14.120Z,0
2016-10-29T17:09:27.270Z,0
2016-10-29T17:10:38.708Z,0
2016-10-29T17:11:50.126Z,0
2016-10-29T17:13:01.270Z,0
2016-10-29T17:14:12.165Z,0
2016-10-29T17:15:23.929Z,0
2016-10-29T17:16:34.386Z,0
2016-10-29T17:17:45.455Z,0
2016-10-29T17:18:58.049Z,0
2016-10-29T17:20:11.320Z,0
2016-10-29T17:21:22.413Z,0
2016-10-29T17:22:33.898Z,0
2016-10-29T17:23:45.374Z,0
2016-10-29T17:24:56.968Z,0
2016-10-29T17:26:09.300Z,0
2016-10-29T17:27:21.849Z,0
2016-10-29T17:28:33.384Z,0
2016-10-29T17:29:46.640Z,0
2016-10-29T17:30:58.096Z,0
2016-10-29T17:32:10.805Z,0
2016-10-29T17:33:22.635Z,0
2016-10-29T17:34:33.753Z,0
2016-10-29T17:35:45.775Z,0
2016-10-29T17:36:55.899Z,0
2016-10-29T17:38:07.781Z,0
2016-10-29T17:39:19.378Z,0
2016-10-29T17:40:31.008Z,0
2016-10-29T17:41:43.309Z,0
2016-10-29T17:42:54.781Z,0
2016-10-29T17:44:07.262Z,0
2016-10-29T17:45:19.448Z,0
2016-10-29T17:46:30.781Z,0
2016-10-29T17:47:43.985Z,0
2016-10-29T17:48:55.894Z,0
2016-10-29T17:50:06.927Z,0
2016-10-29T17:51:18.250Z,0
2016-10-29T17:52:28.844Z,0
2016-10-29T17:53:40.300Z,0
2016-10-29T17:54:51.727Z,0
2016-10-29T17:56:03.829Z,0
2016-10-29T17:57:15.721Z,0
2016-10-29T17:58:28.564Z,0
2016-10-29T17:59:39.394Z,0
2016-10-29T18:00:51.513Z,0
2016-10-29T18:02:03.241Z,0
2016-10-29T18:03:14.342Z,0
2016-10-29T18:04:26.391Z,0
2016-10-29T18:05:37.892Z,0
2016-10-29T18:06:48.498Z,0
2016-10-29T18:08:00.415Z,0
2016-10-29T18:09:12.543Z,0
2016-10-29T18:10:24.578Z,0
2016-10-29T18:11:36.333Z,0
2016-10-29T18:12:48.466Z,0
2016-10-29T18:14:00.063Z,0
2016-10-29T18:15:12.162Z,0
2016-10-29T18:16:24.045Z,0
2016-10-29T18:17:35.045Z,0
2016-10-29T18:18:47.845Z,0
2016-10-29T18:19:59.940Z,0
2016-10-29T18:21:09.648Z,0
2016-10-29T18:22:22.018Z,0
2016-10-29T18:23:34.051Z,0
2016-10-29T18:24:44.772Z,0
2016-10-29T18:25:55.788Z,0
2016-10-29T18:27:07.394Z,0
2016-10-29T18:28:20.594Z,0